sensor_id;sensor_type;location;lat;lon;timestamp;temperature;humidity
75049;DHT22;63803;53.120;8.764;2022-12-07T00:01:04;22.30;48.80
75049;DHT22;63803;53.120;8.764;2022-12-07T00:03:30;22.30;48.80
75049;DHT22;63803;53.120;8.764;2022-12-07T00:06:00;22.20;48.60
75049;DHT22;63803;53.120;8.764;2022-12-07T00:08:26;22.40;48.90
75049;DHT22;63803;53.120;8.764;2022-12-07T00:10:51;22.40;48.80
75049;DHT22;63803;53.120;8.764;2022-12-07T00:13:17;22.40;49.10
75049;DHT22;63803;53.120;8.764;2022-12-07T00:15:44;22.30;49.00
75049;DHT22;63803;53.120;8.764;2022-12-07T00:18:09;22.30;48.90
75049;DHT22;63803;53.120;8.764;2022-12-07T00:20:35;22.30;48.90
75049;DHT22;63803;53.120;8.764;2022-12-07T00:23:01;22.30;49.00
75049;DHT22;63803;53.120;8.764;2022-12-07T00:25:27;22.20;48.90
75049;DHT22;63803;53.120;8.764;2022-12-07T00:27:53;22.20;48.90
75049;DHT22;63803;53.120;8.764;2022-12-07T00:30:22;22.30;49.00
75049;DHT22;63803;53.120;8.764;2022-12-07T00:32:49;22.30;49.00
75049;DHT22;63803;53.120;8.764;2022-12-07T00:35:15;22.30;49.00
75049;DHT22;63803;53.120;8.764;2022-12-07T00:37:40;22.30;48.90
75049;DHT22;63803;53.120;8.764;2022-12-07T00:40:06;22.30;48.80
75049;DHT22;63803;53.120;8.764;2022-12-07T00:42:32;22.30;48.90
75049;DHT22;63803;53.120;8.764;2022-12-07T00:44:58;22.30;48.90
75049;DHT22;63803;53.120;8.764;2022-12-07T00:47:24;22.30;48.90
75049;DHT22;63803;53.120;8.764;2022-12-07T00:49:50;22.30;48.90
75049;DHT22;63803;53.120;8.764;2022-12-07T00:52:16;22.30;48.90
75049;DHT22;63803;53.120;8.764;2022-12-07T00:54:42;22.30;48.70
75049;DHT22;63803;53.120;8.764;2022-12-07T00:57:08;22.30;48.80
75049;DHT22;63803;53.120;8.764;2022-12-07T00:59:33;22.30;49.40
75049;DHT22;63803;53.120;8.764;2022-12-07T01:01:59;22.30;48.70
75049;DHT22;63803;53.120;8.764;2022-12-07T01:04:25;22.30;48.70
75049;DHT22;63803;53.120;8.764;2022-12-07T01:06:51;22.30;48.70
75049;DHT22;63803;53.120;8.764;2022-12-07T01:09:17;22.30;48.70
75049;DHT22;63803;53.120;8.764;2022-12-07T01:11:43;22.30;48.70
75049;DHT22;63803;53.120;8.764;2022-12-07T01:14:09;22.30;48.70
75049;DHT22;63803;53.120;8.764;2022-12-07T01:16:35;22.30;48.90
75049;DHT22;63803;53.120;8.764;2022-12-07T01:19:01;22.40;48.90
75049;DHT22;63803;53.120;8.764;2022-12-07T01:21:28;22.40;48.80
75049;DHT22;63803;53.120;8.764;2022-12-07T01:23:56;22.30;48.70
75049;DHT22;63803;53.120;8.764;2022-12-07T01:26:23;22.30;48.80
75049;DHT22;63803;53.120;8.764;2022-12-07T01:28:49;22.30;48.70
75049;DHT22;63803;53.120;8.764;2022-12-07T01:31:19;22.30;48.70
75049;DHT22;63803;53.120;8.764;2022-12-07T01:33:47;22.30;48.70
75049;DHT22;63803;53.120;8.764;2022-12-07T01:36:26;22.30;48.70
75049;DHT22;63803;53.120;8.764;2022-12-07T01:38:54;22.30;48.70
75049;DHT22;63803;53.120;8.764;2022-12-07T01:41:22;22.30;48.60
75049;DHT22;63803;53.120;8.764;2022-12-07T01:46:33;22.40;48.70
75049;DHT22;63803;53.120;8.764;2022-12-07T01:48:59;22.30;48.70
75049;DHT22;63803;53.120;8.764;2022-12-07T01:51:25;22.30;48.50
75049;DHT22;63803;53.120;8.764;2022-12-07T01:53:51;22.30;48.50
75049;DHT22;63803;53.120;8.764;2022-12-07T01:56:17;22.30;48.50
75049;DHT22;63803;53.120;8.764;2022-12-07T01:58:44;22.30;48.50
75049;DHT22;63803;53.120;8.764;2022-12-07T02:01:10;21.60;44.00
75049;DHT22;63803;53.120;8.764;2022-12-07T02:03:37;21.10;44.30
75049;DHT22;63803;53.120;8.764;2022-12-07T02:06:04;21.40;46.10
75049;DHT22;63803;53.120;8.764;2022-12-07T02:08:31;21.70;46.70
75049;DHT22;63803;53.120;8.764;2022-12-07T02:10:57;21.80;47.00
75049;DHT22;63803;53.120;8.764;2022-12-07T02:13:23;22.00;47.50
75049;DHT22;63803;53.120;8.764;2022-12-07T02:25:55;22.20;47.10
75049;DHT22;63803;53.120;8.764;2022-12-07T02:28:31;22.20;47.10
75049;DHT22;63803;53.120;8.764;2022-12-07T02:31:01;22.20;47.10
75049;DHT22;63803;53.120;8.764;2022-12-07T02:33:31;22.30;47.20
75049;DHT22;63803;53.120;8.764;2022-12-07T02:36:03;22.30;47.80
75049;DHT22;63803;53.120;8.764;2022-12-07T02:38:43;22.30;47.20
75049;DHT22;63803;53.120;8.764;2022-12-07T02:41:22;22.30;47.20
75049;DHT22;63803;53.120;8.764;2022-12-07T02:43:55;22.30;47.20
75049;DHT22;63803;53.120;8.764;2022-12-07T02:46:25;22.30;47.20
75049;DHT22;63803;53.120;8.764;2022-12-07T02:48:52;22.40;47.30
75049;DHT22;63803;53.120;8.764;2022-12-07T02:51:19;22.40;47.30
75049;DHT22;63803;53.120;8.764;2022-12-07T02:53:44;22.40;47.30
75049;DHT22;63803;53.120;8.764;2022-12-07T03:01:42;22.40;47.30
75049;DHT22;63803;53.120;8.764;2022-12-07T03:04:20;22.40;47.30
75049;DHT22;63803;53.120;8.764;2022-12-07T03:06:49;22.40;47.20
75049;DHT22;63803;53.120;8.764;2022-12-07T03:09:20;22.40;47.20
75049;DHT22;63803;53.120;8.764;2022-12-07T03:11:51;22.40;47.20
75049;DHT22;63803;53.120;8.764;2022-12-07T03:14:30;22.40;47.30
75049;DHT22;63803;53.120;8.764;2022-12-07T03:17:01;22.40;47.30
75049;DHT22;63803;53.120;8.764;2022-12-07T03:19:28;22.40;47.30
75049;DHT22;63803;53.120;8.764;2022-12-07T03:21:57;22.40;47.20
75049;DHT22;63803;53.120;8.764;2022-12-07T03:24:27;22.40;47.30
75049;DHT22;63803;53.120;8.764;2022-12-07T03:27:16;22.40;47.30
75049;DHT22;63803;53.120;8.764;2022-12-07T03:29:43;22.40;47.30
75049;DHT22;63803;53.120;8.764;2022-12-07T03:32:14;22.40;47.30
75049;DHT22;63803;53.120;8.764;2022-12-07T03:34:45;22.40;47.30
75049;DHT22;63803;53.120;8.764;2022-12-07T03:37:22;22.40;47.30
75049;DHT22;63803;53.120;8.764;2022-12-07T03:40:07;22.40;47.30
75049;DHT22;63803;53.120;8.764;2022-12-07T03:42:37;22.40;47.30
75049;DHT22;63803;53.120;8.764;2022-12-07T03:45:03;22.40;47.30
75049;DHT22;63803;53.120;8.764;2022-12-07T03:47:30;22.40;47.30
75049;DHT22;63803;53.120;8.764;2022-12-07T03:52:33;22.40;47.30
75049;DHT22;63803;53.120;8.764;2022-12-07T03:55:09;22.40;47.30
75049;DHT22;63803;53.120;8.764;2022-12-07T03:57:35;22.30;47.30
75049;DHT22;63803;53.120;8.764;2022-12-07T04:00:03;22.30;47.30
75049;DHT22;63803;53.120;8.764;2022-12-07T04:02:29;22.40;47.30
75049;DHT22;63803;53.120;8.764;2022-12-07T04:04:55;22.30;47.30
75049;DHT22;63803;53.120;8.764;2022-12-07T04:07:21;22.30;47.30
75049;DHT22;63803;53.120;8.764;2022-12-07T04:09:47;22.40;47.40
75049;DHT22;63803;53.120;8.764;2022-12-07T04:12:13;22.40;47.20
75049;DHT22;63803;53.120;8.764;2022-12-07T04:14:39;22.40;47.20
75049;DHT22;63803;53.120;8.764;2022-12-07T04:17:04;22.40;47.20
75049;DHT22;63803;53.120;8.764;2022-12-07T04:19:31;22.40;47.20
75049;DHT22;63803;53.120;8.764;2022-12-07T04:21:58;22.40;47.30
75049;DHT22;63803;53.120;8.764;2022-12-07T04:24:24;22.30;47.30
75049;DHT22;63803;53.120;8.764;2022-12-07T04:26:50;22.30;47.30
75049;DHT22;63803;53.120;8.764;2022-12-07T04:29:17;22.30;47.30
75049;DHT22;63803;53.120;8.764;2022-12-07T04:31:43;22.30;47.30
75049;DHT22;63803;53.120;8.764;2022-12-07T04:34:09;22.40;47.40
75049;DHT22;63803;53.120;8.764;2022-12-07T04:36:35;22.40;47.30
75049;DHT22;63803;53.120;8.764;2022-12-07T04:39:01;23.00;47.60
75049;DHT22;63803;53.120;8.764;2022-12-07T04:41:27;22.50;47.30
75049;DHT22;63803;53.120;8.764;2022-12-07T04:43:56;22.50;47.10
75049;DHT22;63803;53.120;8.764;2022-12-07T04:46:23;22.50;47.30
75049;DHT22;63803;53.120;8.764;2022-12-07T04:48:49;22.50;47.30
75049;DHT22;63803;53.120;8.764;2022-12-07T04:51:16;22.40;47.30
75049;DHT22;63803;53.120;8.764;2022-12-07T04:53:43;22.40;47.30
75049;DHT22;63803;53.120;8.764;2022-12-07T04:56:09;22.40;47.40
75049;DHT22;63803;53.120;8.764;2022-12-07T04:58:35;22.40;47.40
75049;DHT22;63803;53.120;8.764;2022-12-07T05:01:01;22.40;47.60
75049;DHT22;63803;53.120;8.764;2022-12-07T05:03:27;22.40;47.70
75049;DHT22;63803;53.120;8.764;2022-12-07T05:05:53;22.40;47.70
75049;DHT22;63803;53.120;8.764;2022-12-07T05:08:18;22.40;47.70
75049;DHT22;63803;53.120;8.764;2022-12-07T05:10:44;22.40;47.70
75049;DHT22;63803;53.120;8.764;2022-12-07T05:13:10;22.40;47.80
75049;DHT22;63803;53.120;8.764;2022-12-07T05:15:36;22.40;47.70
75049;DHT22;63803;53.120;8.764;2022-12-07T05:18:02;22.40;47.70
75049;DHT22;63803;53.120;8.764;2022-12-07T05:20:28;22.40;47.70
75049;DHT22;63803;53.120;8.764;2022-12-07T05:22:54;22.40;47.70
75049;DHT22;63803;53.120;8.764;2022-12-07T05:25:20;22.40;47.70
75049;DHT22;63803;53.120;8.764;2022-12-07T05:27:46;22.40;47.80
75049;DHT22;63803;53.120;8.764;2022-12-07T05:30:12;22.40;47.80
75049;DHT22;63803;53.120;8.764;2022-12-07T05:32:38;22.50;47.80
75049;DHT22;63803;53.120;8.764;2022-12-07T05:35:04;22.50;47.90
75049;DHT22;63803;53.120;8.764;2022-12-07T05:37:30;22.50;47.70
75049;DHT22;63803;53.120;8.764;2022-12-07T05:39:57;22.50;47.60
75049;DHT22;63803;53.120;8.764;2022-12-07T05:42:23;22.50;47.70
75049;DHT22;63803;53.120;8.764;2022-12-07T05:44:48;22.40;47.60
75049;DHT22;63803;53.120;8.764;2022-12-07T05:47:14;22.40;47.70
75049;DHT22;63803;53.120;8.764;2022-12-07T05:49:40;22.40;47.70
75049;DHT22;63803;53.120;8.764;2022-12-07T05:52:06;22.40;47.80
75049;DHT22;63803;53.120;8.764;2022-12-07T05:54:32;22.40;47.70
75049;DHT22;63803;53.120;8.764;2022-12-07T05:56:58;22.40;47.80
75049;DHT22;63803;53.120;8.764;2022-12-07T05:59:25;22.40;47.70
75049;DHT22;63803;53.120;8.764;2022-12-07T06:01:54;22.40;47.70
75049;DHT22;63803;53.120;8.764;2022-12-07T06:04:20;22.40;47.70
75049;DHT22;63803;53.120;8.764;2022-12-07T06:06:46;22.40;47.70
75049;DHT22;63803;53.120;8.764;2022-12-07T06:09:13;22.40;47.70
75049;DHT22;63803;53.120;8.764;2022-12-07T06:11:39;22.40;47.70
75049;DHT22;63803;53.120;8.764;2022-12-07T06:14:24;22.40;47.70
75049;DHT22;63803;53.120;8.764;2022-12-07T06:16:49;22.40;47.60
75049;DHT22;63803;53.120;8.764;2022-12-07T06:19:15;22.30;47.60
75049;DHT22;63803;53.120;8.764;2022-12-07T06:21:41;22.30;47.60
75049;DHT22;63803;53.120;8.764;2022-12-07T06:24:08;22.30;47.50
75049;DHT22;63803;53.120;8.764;2022-12-07T06:26:34;22.30;47.50
75049;DHT22;63803;53.120;8.764;2022-12-07T06:29:00;22.30;47.60
75049;DHT22;63803;53.120;8.764;2022-12-07T06:31:26;22.30;47.50
75049;DHT22;63803;53.120;8.764;2022-12-07T06:33:56;22.30;47.50
75049;DHT22;63803;53.120;8.764;2022-12-07T06:36:22;22.30;47.60
75049;DHT22;63803;53.120;8.764;2022-12-07T06:38:48;22.40;47.50
75049;DHT22;63803;53.120;8.764;2022-12-07T06:41:14;22.40;47.50
75049;DHT22;63803;53.120;8.764;2022-12-07T06:43:39;22.40;47.50
75049;DHT22;63803;53.120;8.764;2022-12-07T06:46:05;22.40;47.50
75049;DHT22;63803;53.120;8.764;2022-12-07T06:48:31;22.50;48.20
75049;DHT22;63803;53.120;8.764;2022-12-07T06:50:57;22.50;47.60
75049;DHT22;63803;53.120;8.764;2022-12-07T06:53:23;22.50;47.60
75049;DHT22;63803;53.120;8.764;2022-12-07T06:55:49;22.50;47.50
75049;DHT22;63803;53.120;8.764;2022-12-07T06:58:15;22.50;47.40
75049;DHT22;63803;53.120;8.764;2022-12-07T07:00:41;22.50;47.40
75049;DHT22;63803;53.120;8.764;2022-12-07T07:03:07;22.40;47.40
75049;DHT22;63803;53.120;8.764;2022-12-07T07:05:33;22.50;47.40
75049;DHT22;63803;53.120;8.764;2022-12-07T07:07:59;22.50;47.20
75049;DHT22;63803;53.120;8.764;2022-12-07T07:10:24;22.50;47.30
75049;DHT22;63803;53.120;8.764;2022-12-07T07:12:50;22.50;48.00
75049;DHT22;63803;53.120;8.764;2022-12-07T07:15:16;22.50;47.10
75049;DHT22;63803;53.120;8.764;2022-12-07T07:17:43;22.50;46.90
75049;DHT22;63803;53.120;8.764;2022-12-07T07:20:08;22.50;47.00
75049;DHT22;63803;53.120;8.764;2022-12-07T07:22:35;22.50;47.00
75049;DHT22;63803;53.120;8.764;2022-12-07T07:25:00;22.50;47.00
75049;DHT22;63803;53.120;8.764;2022-12-07T07:27:26;22.50;47.00
75049;DHT22;63803;53.120;8.764;2022-12-07T07:29:52;22.50;47.00
75049;DHT22;63803;53.120;8.764;2022-12-07T07:32:18;22.50;47.00
75049;DHT22;63803;53.120;8.764;2022-12-07T07:34:44;22.50;47.00
75049;DHT22;63803;53.120;8.764;2022-12-07T07:37:10;22.40;47.00
75049;DHT22;63803;53.120;8.764;2022-12-07T07:39:38;22.40;47.10
75049;DHT22;63803;53.120;8.764;2022-12-07T07:42:04;22.40;46.90
75049;DHT22;63803;53.120;8.764;2022-12-07T07:44:30;22.40;46.90
75049;DHT22;63803;53.120;8.764;2022-12-07T07:46:55;22.30;46.90
75049;DHT22;63803;53.120;8.764;2022-12-07T07:49:21;22.30;46.90
75049;DHT22;63803;53.120;8.764;2022-12-07T07:51:47;22.30;46.80
75049;DHT22;63803;53.120;8.764;2022-12-07T07:54:13;22.30;46.80
75049;DHT22;63803;53.120;8.764;2022-12-07T07:56:39;22.30;46.70
75049;DHT22;63803;53.120;8.764;2022-12-07T07:59:05;22.30;46.60
75049;DHT22;63803;53.120;8.764;2022-12-07T08:01:30;22.20;46.60
75049;DHT22;63803;53.120;8.764;2022-12-07T08:03:56;22.20;46.80
75049;DHT22;63803;53.120;8.764;2022-12-07T08:06:22;22.20;47.20
75049;DHT22;63803;53.120;8.764;2022-12-07T08:08:48;22.20;46.50
75049;DHT22;63803;53.120;8.764;2022-12-07T08:11:14;22.20;46.70
75049;DHT22;63803;53.120;8.764;2022-12-07T08:13:39;22.20;46.60
75049;DHT22;63803;53.120;8.764;2022-12-07T08:16:06;22.20;46.60
75049;DHT22;63803;53.120;8.764;2022-12-07T08:18:35;22.20;46.50
75049;DHT22;63803;53.120;8.764;2022-12-07T08:21:01;21.40;46.10
75049;DHT22;63803;53.120;8.764;2022-12-07T08:23:27;22.30;46.90
75049;DHT22;63803;53.120;8.764;2022-12-07T08:25:53;22.30;47.00
75049;DHT22;63803;53.120;8.764;2022-12-07T08:28:18;22.30;47.20
75049;DHT22;63803;53.120;8.764;2022-12-07T08:30:44;22.30;47.10
75049;DHT22;63803;53.120;8.764;2022-12-07T08:33:10;22.30;47.30
75049;DHT22;63803;53.120;8.764;2022-12-07T08:35:36;22.40;47.20
75049;DHT22;63803;53.120;8.764;2022-12-07T08:38:02;22.50;47.20
75049;DHT22;63803;53.120;8.764;2022-12-07T08:40:29;22.40;47.10
75049;DHT22;63803;53.120;8.764;2022-12-07T08:42:55;22.40;47.30
75049;DHT22;63803;53.120;8.764;2022-12-07T08:45:21;22.50;48.00
75049;DHT22;63803;53.120;8.764;2022-12-07T08:50:16;22.50;48.10
75049;DHT22;63803;53.120;8.764;2022-12-07T08:52:42;22.40;48.20
75049;DHT22;63803;53.120;8.764;2022-12-07T08:55:09;22.50;48.30
75049;DHT22;63803;53.120;8.764;2022-12-07T08:57:35;22.50;48.30
75049;DHT22;63803;53.120;8.764;2022-12-07T09:00:02;22.50;48.30
75049;DHT22;63803;53.120;8.764;2022-12-07T09:02:28;22.50;48.30
75049;DHT22;63803;53.120;8.764;2022-12-07T09:04:55;22.50;48.40
75049;DHT22;63803;53.120;8.764;2022-12-07T09:07:21;22.50;48.40
75049;DHT22;63803;53.120;8.764;2022-12-07T09:09:47;22.50;48.50
75049;DHT22;63803;53.120;8.764;2022-12-07T09:12:13;22.50;48.70
75049;DHT22;63803;53.120;8.764;2022-12-07T09:14:39;22.50;48.70
75049;DHT22;63803;53.120;8.764;2022-12-07T09:17:05;22.50;49.60
75049;DHT22;63803;53.120;8.764;2022-12-07T09:19:31;22.50;49.80
75049;DHT22;63803;53.120;8.764;2022-12-07T09:21:57;22.60;49.70
75049;DHT22;63803;53.120;8.764;2022-12-07T09:24:23;22.60;49.80
75049;DHT22;63803;53.120;8.764;2022-12-07T09:26:49;22.60;50.70
75049;DHT22;63803;53.120;8.764;2022-12-07T09:29:15;22.60;50.70
75049;DHT22;63803;53.120;8.764;2022-12-07T09:31:41;22.50;50.60
75049;DHT22;63803;53.120;8.764;2022-12-07T09:34:06;22.50;50.60
75049;DHT22;63803;53.120;8.764;2022-12-07T09:36:32;22.50;50.50
75049;DHT22;63803;53.120;8.764;2022-12-07T09:38:58;22.50;50.40
75049;DHT22;63803;53.120;8.764;2022-12-07T09:41:25;22.50;50.30
75049;DHT22;63803;53.120;8.764;2022-12-07T09:44:04;22.50;50.20
75049;DHT22;63803;53.120;8.764;2022-12-07T09:46:33;22.50;50.40
75049;DHT22;63803;53.120;8.764;2022-12-07T09:49:00;22.50;50.10
75049;DHT22;63803;53.120;8.764;2022-12-07T09:51:26;22.50;50.10
75049;DHT22;63803;53.120;8.764;2022-12-07T09:53:52;22.50;50.10
75049;DHT22;63803;53.120;8.764;2022-12-07T09:56:18;22.60;49.90
75049;DHT22;63803;53.120;8.764;2022-12-07T09:58:45;22.50;49.70
75049;DHT22;63803;53.120;8.764;2022-12-07T10:01:15;22.50;49.90
75049;DHT22;63803;53.120;8.764;2022-12-07T10:04:08;22.50;49.90
75049;DHT22;63803;53.120;8.764;2022-12-07T10:06:27;22.50;49.70
75049;DHT22;63803;53.120;8.764;2022-12-07T10:08:56;22.50;49.70
75049;DHT22;63803;53.120;8.764;2022-12-07T10:11:21;22.50;49.60
75049;DHT22;63803;53.120;8.764;2022-12-07T10:13:48;22.50;49.50
75049;DHT22;63803;53.120;8.764;2022-12-07T10:18:49;22.50;49.30
75049;DHT22;63803;53.120;8.764;2022-12-07T10:21:17;22.50;49.50
75049;DHT22;63803;53.120;8.764;2022-12-07T10:28:58;22.50;49.30
75049;DHT22;63803;53.120;8.764;2022-12-07T10:31:24;22.50;49.40
75049;DHT22;63803;53.120;8.764;2022-12-07T10:33:54;22.50;49.20
75049;DHT22;63803;53.120;8.764;2022-12-07T10:38:47;22.50;49.30
75049;DHT22;63803;53.120;8.764;2022-12-07T10:41:13;22.50;49.20
75049;DHT22;63803;53.120;8.764;2022-12-07T10:43:46;22.50;49.30
75049;DHT22;63803;53.120;8.764;2022-12-07T10:48:56;22.50;49.30
75049;DHT22;63803;53.120;8.764;2022-12-07T10:51:29;22.40;49.20
75049;DHT22;63803;53.120;8.764;2022-12-07T11:02:15;22.50;49.10
75049;DHT22;63803;53.120;8.764;2022-12-07T11:10:05;22.50;48.90
75049;DHT22;63803;53.120;8.764;2022-12-07T11:20:48;22.50;48.90
75049;DHT22;63803;53.120;8.764;2022-12-07T11:31:17;22.40;48.80
75049;DHT22;63803;53.120;8.764;2022-12-07T11:33:51;22.50;48.70
75049;DHT22;63803;53.120;8.764;2022-12-07T11:38:54;22.50;48.80
75049;DHT22;63803;53.120;8.764;2022-12-07T11:41:23;22.40;48.60
75049;DHT22;63803;53.120;8.764;2022-12-07T11:43:52;22.40;48.60
75049;DHT22;63803;53.120;8.764;2022-12-07T11:46:19;22.40;48.60
75049;DHT22;63803;53.120;8.764;2022-12-07T11:48:50;22.50;48.60
75049;DHT22;63803;53.120;8.764;2022-12-07T11:51:18;22.50;48.60
75049;DHT22;63803;53.120;8.764;2022-12-07T11:53:48;22.50;48.60
75049;DHT22;63803;53.120;8.764;2022-12-07T11:56:22;22.50;48.60
75049;DHT22;63803;53.120;8.764;2022-12-07T11:59:31;22.50;48.50
75049;DHT22;63803;53.120;8.764;2022-12-07T12:06:41;22.50;48.40
75049;DHT22;63803;53.120;8.764;2022-12-07T12:24:36;22.50;48.40
75049;DHT22;63803;53.120;8.764;2022-12-07T12:27:06;22.50;48.40
75049;DHT22;63803;53.120;8.764;2022-12-07T12:29:41;22.50;48.40
75049;DHT22;63803;53.120;8.764;2022-12-07T12:37:14;22.50;48.40
75049;DHT22;63803;53.120;8.764;2022-12-07T12:42:48;22.50;48.30
75049;DHT22;63803;53.120;8.764;2022-12-07T12:45:28;22.50;48.40
75049;DHT22;63803;53.120;8.764;2022-12-07T12:48:01;22.50;48.30
75049;DHT22;63803;53.120;8.764;2022-12-07T12:50:37;22.50;48.20
75049;DHT22;63803;53.120;8.764;2022-12-07T12:58:29;22.50;48.40
75049;DHT22;63803;53.120;8.764;2022-12-07T13:03:37;22.50;48.20
75049;DHT22;63803;53.120;8.764;2022-12-07T13:08:48;22.50;48.00
75049;DHT22;63803;53.120;8.764;2022-12-07T13:11:47;22.50;47.80
75049;DHT22;63803;53.120;8.764;2022-12-07T13:16:51;22.50;47.70
75049;DHT22;63803;53.120;8.764;2022-12-07T13:19:34;22.50;47.60
75049;DHT22;63803;53.120;8.764;2022-12-07T13:25:35;22.50;47.60
75049;DHT22;63803;53.120;8.764;2022-12-07T13:27:51;22.50;47.50
75049;DHT22;63803;53.120;8.764;2022-12-07T13:30:20;22.50;47.60
75049;DHT22;63803;53.120;8.764;2022-12-07T13:32:53;22.50;47.50
75049;DHT22;63803;53.120;8.764;2022-12-07T13:35:29;22.50;47.50
75049;DHT22;63803;53.120;8.764;2022-12-07T13:37:55;22.50;47.50
75049;DHT22;63803;53.120;8.764;2022-12-07T13:40:22;22.50;47.60
75049;DHT22;63803;53.120;8.764;2022-12-07T13:42:48;22.50;47.50
75049;DHT22;63803;53.120;8.764;2022-12-07T13:45:23;22.50;47.40
75049;DHT22;63803;53.120;8.764;2022-12-07T13:48:12;22.50;47.40
75049;DHT22;63803;53.120;8.764;2022-12-07T13:50:40;22.50;47.40
75049;DHT22;63803;53.120;8.764;2022-12-07T13:53:07;22.50;47.30
75049;DHT22;63803;53.120;8.764;2022-12-07T13:55:37;22.50;47.30
75049;DHT22;63803;53.120;8.764;2022-12-07T13:58:09;22.50;47.20
75049;DHT22;63803;53.120;8.764;2022-12-07T14:00:35;22.50;47.20
75049;DHT22;63803;53.120;8.764;2022-12-07T14:03:03;22.50;47.20
75049;DHT22;63803;53.120;8.764;2022-12-07T14:05:33;22.50;47.30
75049;DHT22;63803;53.120;8.764;2022-12-07T14:08:00;22.40;47.10
75049;DHT22;63803;53.120;8.764;2022-12-07T14:10:28;22.50;47.30
75049;DHT22;63803;53.120;8.764;2022-12-07T14:12:54;22.50;47.20
75049;DHT22;63803;53.120;8.764;2022-12-07T14:15:24;22.40;47.10
75049;DHT22;63803;53.120;8.764;2022-12-07T14:17:51;22.40;47.80
75049;DHT22;63803;53.120;8.764;2022-12-07T14:20:34;22.50;47.10
75049;DHT22;63803;53.120;8.764;2022-12-07T14:23:00;22.50;47.10
75049;DHT22;63803;53.120;8.764;2022-12-07T14:25:47;22.40;47.10
75049;DHT22;63803;53.120;8.764;2022-12-07T14:28:30;22.50;47.10
75049;DHT22;63803;53.120;8.764;2022-12-07T14:30:57;22.50;47.10
75049;DHT22;63803;53.120;8.764;2022-12-07T14:33:23;22.50;47.10
75049;DHT22;63803;53.120;8.764;2022-12-07T14:35:49;22.40;46.90
75049;DHT22;63803;53.120;8.764;2022-12-07T14:38:15;22.40;46.90
75049;DHT22;63803;53.120;8.764;2022-12-07T14:40:44;22.40;47.00
75049;DHT22;63803;53.120;8.764;2022-12-07T14:43:13;22.40;46.90
75049;DHT22;63803;53.120;8.764;2022-12-07T14:45:40;22.40;47.00
75049;DHT22;63803;53.120;8.764;2022-12-07T14:48:07;22.40;46.90
75049;DHT22;63803;53.120;8.764;2022-12-07T14:50:36;22.40;47.00
75049;DHT22;63803;53.120;8.764;2022-12-07T14:53:06;22.40;46.90
75049;DHT22;63803;53.120;8.764;2022-12-07T14:55:35;22.40;46.80
75049;DHT22;63803;53.120;8.764;2022-12-07T14:58:01;22.40;46.80
75049;DHT22;63803;53.120;8.764;2022-12-07T15:00:27;22.40;46.70
75049;DHT22;63803;53.120;8.764;2022-12-07T15:02:53;22.40;46.80
75049;DHT22;63803;53.120;8.764;2022-12-07T15:05:19;22.40;46.70
75049;DHT22;63803;53.120;8.764;2022-12-07T15:07:46;22.40;46.70
75049;DHT22;63803;53.120;8.764;2022-12-07T15:12:40;22.40;46.70
75049;DHT22;63803;53.120;8.764;2022-12-07T15:15:06;22.40;46.60
75049;DHT22;63803;53.120;8.764;2022-12-07T15:17:32;22.40;46.70
75049;DHT22;63803;53.120;8.764;2022-12-07T15:19:58;22.40;46.60
75049;DHT22;63803;53.120;8.764;2022-12-07T15:22:24;22.40;46.60
75049;DHT22;63803;53.120;8.764;2022-12-07T15:24:50;22.40;46.60
75049;DHT22;63803;53.120;8.764;2022-12-07T15:27:16;22.40;46.60
75049;DHT22;63803;53.120;8.764;2022-12-07T15:29:41;22.40;46.60
75049;DHT22;63803;53.120;8.764;2022-12-07T15:32:07;22.40;46.60
75049;DHT22;63803;53.120;8.764;2022-12-07T15:34:33;22.40;46.50
75049;DHT22;63803;53.120;8.764;2022-12-07T15:36:59;22.40;46.50
75049;DHT22;63803;53.120;8.764;2022-12-07T15:39:25;22.40;46.50
75049;DHT22;63803;53.120;8.764;2022-12-07T15:41:51;22.40;46.40
75049;DHT22;63803;53.120;8.764;2022-12-07T15:44:17;22.40;46.40
75049;DHT22;63803;53.120;8.764;2022-12-07T15:47:02;22.40;46.40
75049;DHT22;63803;53.120;8.764;2022-12-07T15:49:29;22.40;46.30
75049;DHT22;63803;53.120;8.764;2022-12-07T15:51:55;22.40;46.40
75049;DHT22;63803;53.120;8.764;2022-12-07T15:54:22;22.40;46.40
75049;DHT22;63803;53.120;8.764;2022-12-07T15:56:48;22.40;46.40
75049;DHT22;63803;53.120;8.764;2022-12-07T15:59:14;22.40;46.40
75049;DHT22;63803;53.120;8.764;2022-12-07T16:01:40;22.40;46.30
75049;DHT22;63803;53.120;8.764;2022-12-07T16:04:06;22.40;46.40
75049;DHT22;63803;53.120;8.764;2022-12-07T16:06:32;22.40;46.30
75049;DHT22;63803;53.120;8.764;2022-12-07T16:08:58;22.40;46.40
75049;DHT22;63803;53.120;8.764;2022-12-07T16:11:24;22.40;46.40
75049;DHT22;63803;53.120;8.764;2022-12-07T16:13:50;22.40;46.40
75049;DHT22;63803;53.120;8.764;2022-12-07T16:16:17;22.40;46.20
75049;DHT22;63803;53.120;8.764;2022-12-07T16:18:44;22.40;46.30
75049;DHT22;63803;53.120;8.764;2022-12-07T16:21:10;22.40;46.30
75049;DHT22;63803;53.120;8.764;2022-12-07T16:23:36;22.40;46.20
75049;DHT22;63803;53.120;8.764;2022-12-07T16:26:10;22.40;46.20
75049;DHT22;63803;53.120;8.764;2022-12-07T16:28:36;22.40;46.20
75049;DHT22;63803;53.120;8.764;2022-12-07T16:31:03;22.40;46.20
75049;DHT22;63803;53.120;8.764;2022-12-07T16:33:29;22.40;46.10
75049;DHT22;63803;53.120;8.764;2022-12-07T16:35:55;22.40;46.20
75049;DHT22;63803;53.120;8.764;2022-12-07T16:38:21;22.40;46.10
75049;DHT22;63803;53.120;8.764;2022-12-07T16:40:47;22.40;46.10
75049;DHT22;63803;53.120;8.764;2022-12-07T16:43:13;22.40;46.10
75049;DHT22;63803;53.120;8.764;2022-12-07T16:45:39;22.40;46.00
75049;DHT22;63803;53.120;8.764;2022-12-07T16:48:05;22.40;46.00
75049;DHT22;63803;53.120;8.764;2022-12-07T16:50:31;22.40;46.00
75049;DHT22;63803;53.120;8.764;2022-12-07T16:52:57;22.40;46.00
75049;DHT22;63803;53.120;8.764;2022-12-07T16:55:23;22.40;46.00
75049;DHT22;63803;53.120;8.764;2022-12-07T16:57:49;22.40;45.90
75049;DHT22;63803;53.120;8.764;2022-12-07T17:00:15;22.40;45.90
75049;DHT22;63803;53.120;8.764;2022-12-07T17:02:41;22.40;45.90
75049;DHT22;63803;53.120;8.764;2022-12-07T17:05:07;22.40;46.00
75049;DHT22;63803;53.120;8.764;2022-12-07T17:07:34;22.40;46.00
75049;DHT22;63803;53.120;8.764;2022-12-07T17:09:59;22.40;46.00
75049;DHT22;63803;53.120;8.764;2022-12-07T17:12:25;22.40;46.00
75049;DHT22;63803;53.120;8.764;2022-12-07T17:14:51;22.40;46.10
75049;DHT22;63803;53.120;8.764;2022-12-07T17:17:36;22.40;46.10
75049;DHT22;63803;53.120;8.764;2022-12-07T17:20:02;22.40;45.90
75049;DHT22;63803;53.120;8.764;2022-12-07T17:22:29;22.40;45.90
75049;DHT22;63803;53.120;8.764;2022-12-07T17:24:55;22.40;45.90
75049;DHT22;63803;53.120;8.764;2022-12-07T17:27:21;22.40;45.90
75049;DHT22;63803;53.120;8.764;2022-12-07T17:29:47;22.40;45.70